Time;durP1;ratioP1;P1;durP2;ratioP2;P2;SDS_P1;SDS_P2;PMS_P1;PMS_P2;Temp;Humidity;BMP_temperature;BMP_pressure;BME280_temperature;BME280_humidity;BME280_pressure;Samples;Min_cycle;Max_cycle;Signal;HPM_P1;HPM_P2
2023/09/20 00:02:22;;;;;;;;;1.00;0.00;;;;;21.32;70.32;100793.00;6188534;22;46986;-70
2023/09/20 00:04:48;;;;;;;;;0.75;0.75;;;;;21.27;70.40;100776.22;6188462;22;45268;-70
2023/09/20 00:07:13;;;;;;;;;0.25;0.25;;;;;21.34;70.86;100791.03;6215760;22;45237;-70
2023/09/20 00:09:39;;;;;;;;;1.00;1.00;;;;;21.08;70.42;100747.78;6188156;22;45470;-70
2023/09/20 00:12:05;;;;;;;;;0.00;0.00;;;;;21.37;70.19;100788.09;6188236;22;47829;-70
2023/09/20 00:14:30;;;;;;;;;1.75;0.00;;;;;21.38;70.48;100792.50;6215592;22;45345;-70
2023/09/20 00:16:57;;;;;;;;;0.00;0.00;;;;;21.25;70.63;100768.19;6187939;22;45299;-70
2023/09/20 00:19:23;;;;;;;;;0.75;0.75;;;;;21.35;70.40;100786.47;6188391;22;45503;-70
2023/09/20 00:21:49;;;;;;;;;0.00;0.00;;;;;21.37;71.01;100796.22;6215838;22;46726;-71
2023/09/20 00:24:14;;;;;;;;;0.00;0.00;;;;;21.27;71.32;100770.78;6215396;22;45268;-70
2023/09/20 00:26:39;;;;;;;;;1.00;1.00;;;;;21.36;71.28;100780.91;6214901;22;45504;-70
2023/09/20 00:29:05;;;;;;;;;0.00;0.00;;;;;21.23;71.08;100769.28;6188397;22;45939;-70
2023/09/20 00:31:32;;;;;;;;;1.50;1.00;;;;;21.28;71.59;100769.78;6186924;22;47147;-70
2023/09/20 00:33:57;;;;;;;;;0.75;0.75;;;;;21.26;71.63;100758.19;6215684;22;45353;-70
2023/09/20 00:36:23;;;;;;;;;2.25;1.00;;;;;21.31;71.87;100765.97;6188368;22;45320;-70
2023/09/20 00:38:48;;;;;;;;;0.75;0.00;;;;;21.33;72.19;100775.72;6188427;22;45792;-70
2023/09/20 00:41:15;;;;;;;;;0.00;0.00;;;;;21.09;71.95;100735.06;6215620;22;45398;-70
2023/09/20 00:43:41;;;;;;;;;0.75;0.75;;;;;21.00;72.29;100719.47;6187706;22;45936;-70
2023/09/20 00:46:07;;;;;;;;;0.25;0.25;;;;;21.16;71.71;100749.88;6188493;22;45202;-70
2023/09/20 00:48:34;;;;;;;;;1.75;1.75;;;;;21.31;72.41;100766.84;6188286;22;45444;-70
2023/09/20 00:50:59;;;;;;;;;1.00;1.00;;;;;21.14;72.36;100741.00;6215665;22;45509;-70
2023/09/20 00:53:25;;;;;;;;;2.00;2.00;;;;;21.18;72.66;100761.47;6214701;22;45386;-70
2023/09/20 00:55:51;;;;;;;;;2.00;1.00;;;;;21.09;72.48;100741.34;6188125;22;45332;-70
2023/09/20 00:58:19;;;;;;;;;2.00;1.00;;;;;21.05;73.03;100737.16;6188377;22;45551;-70
2023/09/20 01:00:45;;;;;;;;;1.00;1.00;;;;;21.13;72.57;100747.38;6215230;22;45193;-70
2023/09/20 01:03:16;;;;;;;;;0.25;0.25;;;;;21.04;72.52;100724.53;6187567;22;45715;-70
2023/09/20 01:05:42;;;;;;;;;1.00;1.00;;;;;21.24;72.80;100755.59;6217167;22;45381;-70
2023/09/20 01:08:08;;;;;;;;;0.00;0.00;;;;;21.21;72.88;100752.25;6216326;22;45519;-70
2023/09/20 01:10:36;;;;;;;;;1.25;0.25;;;;;21.25;72.68;100760.03;6188502;22;47316;-70
2023/09/20 01:13:09;;;;;;;;;0.00;0.00;;;;;21.02;73.18;100715.66;6189058;22;45294;-70
2023/09/20 01:15:36;;;;;;;;;1.00;1.00;;;;;21.26;72.73;100747.31;6189619;22;45292;-70
2023/09/20 01:18:04;;;;;;;;;0.00;0.00;;;;;21.27;73.12;100754.50;6216695;22;45205;-70
2023/09/20 01:20:32;;;;;;;;;1.00;1.00;;;;;21.09;72.83;100725.06;6216748;22;45471;-70
2023/09/20 01:22:58;;;;;;;;;0.00;0.00;;;;;21.10;73.35;100740.38;6189409;22;45331;-70
2023/09/20 01:25:32;;;;;;;;;1.50;0.75;;;;;20.98;72.78;100726.88;6216663;22;45301;-70
2023/09/20 01:27:59;;;;;;;;;0.50;0.50;;;;;20.94;73.35;100718.09;6215783;22;45311;-70
2023/09/20 01:30:29;;;;;;;;;1.00;1.00;;;;;20.99;72.98;100729.47;6216334;22;45216;-70
2023/09/20 01:32:57;;;;;;;;;0.75;0.00;;;;;21.11;72.86;100752.06;6187779;22;45329;-70
2023/09/20 01:35:24;;;;;;;;;0.00;0.00;;;;;;;;6189142;22;45330;-70
2023/09/20 01:37:49;;;;;;;;;0.25;0.00;;;;;21.14;73.40;100748.28;6188292;22;45447;-70
2023/09/20 01:40:16;;;;;;;;;0.00;0.00;;;;;21.11;72.85;100754.78;6215686;22;46300;-70
2023/09/20 01:42:43;;;;;;;;;0.00;0.00;;;;;21.03;73.37;100736.41;6216252;22;45380;-70
2023/09/20 01:45:14;;;;;;;;;0.25;0.25;;;;;20.92;73.52;100720.06;6189185;22;45198;-70
2023/09/20 01:47:44;;;;;;;;;0.25;0.25;;;;;20.99;73.33;100736.75;6216097;22;45337;-70
2023/09/20 01:50:11;;;;;;;;;1.50;0.00;;;;;20.80;73.79;100707.41;6216105;22;45946;-70
2023/09/20 01:52:37;;;;;;;;;1.00;0.00;;;;;20.96;73.49;100726.97;6216585;22;45795;-70
2023/09/20 01:55:04;;;;;;;;;0.00;0.00;;;;;21.00;73.43;100746.59;6216758;22;45352;-70
2023/09/20 01:57:30;;;;;;;;;0.00;0.00;;;;;20.83;73.71;100708.06;6188921;22;45736;-70
2023/09/20 01:59:57;;;;;;;;;1.00;1.00;;;;;20.97;73.83;100736.88;6216387;22;45868;-70
2023/09/20 02:02:22;;;;;;;;;1.00;1.00;;;;;20.86;74.06;100715.09;6189168;22;45435;-71
2023/09/20 02:04:48;;;;;;;;;1.00;1.00;;;;;20.76;74.06;100698.66;6216606;22;45302;-70
2023/09/20 02:07:15;;;;;;;;;0.25;0.25;;;;;20.72;74.23;100698.03;6188906;22;48188;-70
2023/09/20 02:09:40;;;;;;;;;1.00;1.00;;;;;20.87;73.77;100725.84;6215735;22;45366;-70
2023/09/20 02:12:06;;;;;;;;;1.00;1.00;;;;;20.88;74.24;100721.28;6216338;22;45303;-70
2023/09/20 02:14:31;;;;;;;;;0.00;0.00;;;;;20.72;74.21;100683.63;6216503;22;45309;-70
2023/09/20 02:16:57;;;;;;;;;0.00;0.00;;;;;20.77;74.36;100697.69;6216378;22;46339;-70
2023/09/20 02:19:22;;;;;;;;;1.00;1.00;;;;;20.72;74.07;100687.19;6189038;22;47036;-70
2023/09/20 02:21:48;;;;;;;;;1.00;1.00;;;;;20.86;74.14;100717.81;6189321;22;45511;-70
2023/09/20 02:24:14;;;;;;;;;1.50;0.25;;;;;20.69;74.77;100691.97;6216152;22;45512;-70
2023/09/20 02:26:40;;;;;;;;;0.75;0.00;;;;;20.60;74.49;100676.34;6216693;22;45222;-70
2023/09/20 02:29:07;;;;;;;;;1.25;0.00;;;;;20.68;74.66;100684.81;6216127;22;46056;-70
2023/09/20 02:31:32;;;;;;;;;0.00;0.00;;;;;20.69;75.09;100686.56;6216520;22;45447;-70
2023/09/20 02:33:59;;;;;;;;;2.00;0.00;;;;;20.75;74.98;100698.78;6216418;22;45316;-70
2023/09/20 02:36:27;;;;;;;;;1.00;1.00;;;;;20.66;74.73;100684.91;6216372;22;45418;-70
2023/09/20 02:38:52;;;;;;;;;1.00;0.50;;;;;20.67;74.81;100688.53;6216165;22;45637;-70
2023/09/20 02:41:17;;;;;;;;;0.25;0.25;;;;;20.64;74.75;100684.19;6216406;22;45300;-70
2023/09/20 02:43:43;;;;;;;;;0.00;0.00;;;;;20.70;75.17;100693.72;6188459;22;45413;-70
2023/09/20 02:46:09;;;;;;;;;0.00;0.00;;;;;20.59;74.94;100677.34;6188735;22;45429;-70
2023/09/20 02:48:34;;;;;;;;;1.25;0.00;;;;;20.42;75.29;100648.81;6215449;22;47062;-70
2023/09/20 02:51:00;;;;;;;;;1.00;1.00;;;;;20.59;75.15;100682.78;6188639;22;46099;-70
2023/09/20 02:53:26;;;;;;;;;2.00;0.00;;;;;20.52;75.38;100663.41;6188846;22;45390;-70
2023/09/20 02:55:51;;;;;;;;;0.75;0.75;;;;;20.61;75.31;100688.94;6189118;22;45732;-70
2023/09/20 02:58:17;;;;;;;;;0.00;0.00;;;;;20.41;75.09;100657.91;6216219;22;46472;-70
2023/09/20 03:00:50;;;;;;;;;0.00;0.00;;;;;20.51;75.57;100675.22;6216274;22;45359;-70
2023/09/20 03:03:17;;;;;;;;;0.00;0.00;;;;;20.33;75.24;100655.75;6188906;22;45275;-70
2023/09/20 03:05:44;;;;;;;;;0.50;0.50;;;;;20.38;75.88;100663.56;6188685;22;45411;-70
2023/09/20 03:08:13;;;;;;;;;0.00;0.00;;;;;20.35;75.54;100659.25;6215349;22;46140;-70
2023/09/20 03:10:41;;;;;;;;;1.00;1.00;;;;;20.52;75.43;100685.94;6188741;22;45849;-70
2023/09/20 03:13:07;;;;;;;;;0.00;0.00;;;;;20.26;75.53;100647.22;6215923;22;45261;-70
2023/09/20 03:15:32;;;;;;;;;3.00;0.50;;;;;20.36;76.15;100652.81;6188652;22;45387;-70
2023/09/20 03:18:02;;;;;;;;;0.00;0.00;;;;;20.48;76.39;100670.91;6188953;22;47336;-70
2023/09/20 03:20:34;;;;;;;;;2.00;0.75;;;;;20.38;76.31;100650.00;6215941;22;45367;-70
2023/09/20 03:23:04;;;;;;;;;0.25;0.25;;;;;20.42;76.13;100659.66;6216174;22;45339;-70
2023/09/20 03:25:34;;;;;;;;;1.00;1.00;;;;;20.29;75.89;100640.72;6188578;22;45392;-70
2023/09/20 03:28:00;;;;;;;;;2.50;1.00;;;;;20.32;76.15;100637.78;6215210;22;45412;-70
2023/09/20 03:30:28;;;;;;;;;0.00;0.00;;;;;20.37;76.28;100643.72;6216232;22;45449;-70
2023/09/20 03:32:54;;;;;;;;;0.00;0.00;;;;;20.33;76.83;100632.25;6189025;22;45346;-70
2023/09/20 03:35:19;;;;;;;;;1.00;1.00;;;;;20.18;76.64;100609.00;6215487;22;45379;-70
2023/09/20 03:37:46;;;;;;;;;0.00;0.00;;;;;20.32;76.32;100627.78;6215855;22;45238;-70
2023/09/20 03:40:16;;;;;;;;;1.00;1.00;;;;;20.34;76.45;100636.66;6216114;22;45264;-70
2023/09/20 03:42:42;;;;;;;;;1.00;1.00;;;;;20.31;76.77;100626.09;6215524;22;45336;-70
2023/09/20 03:45:10;;;;;;;;;0.00;0.00;;;;;20.20;76.48;100601.63;6215528;22;45316;-70
2023/09/20 03:47:37;;;;;;;;;1.00;1.00;;;;;20.31;76.96;100614.34;6188894;22;47328;-70
2023/09/20 03:50:03;;;;;;;;;0.00;0.00;;;;;20.34;77.02;100624.97;6216249;22;45415;-70
2023/09/20 03:52:29;;;;;;;;;1.00;1.00;;;;;20.12;76.63;100588.63;6188910;22;45274;-70
2023/09/20 03:54:55;;;;;;;;;1.00;0.00;;;;;20.13;76.80;100592.22;6188762;22;45393;-70
2023/09/20 03:57:24;;;;;;;;;1.00;0.25;;;;;20.29;76.81;100621.75;6215632;22;46033;-70
2023/09/20 03:59:51;;;;;;;;;0.00;0.00;;;;;20.31;76.81;100615.25;6215851;22;45475;-70
2023/09/20 04:02:17;;;;;;;;;0.00;0.00;;;;;20.26;76.79;100611.97;6188710;22;45307;-70
2023/09/20 04:04:42;;;;;;;;;1.00;1.00;;;;;20.10;77.07;100589.75;6188353;22;45830;-70
2023/09/20 04:07:08;;;;;;;;;1.00;1.00;;;;;20.18;77.05;100606.31;6215704;22;46208;-70
2023/09/20 04:09:35;;;;;;;;;0.00;0.00;;;;;20.12;77.27;100590.50;6188252;22;45492;-70
2023/09/20 04:12:01;;;;;;;;;1.00;1.00;;;;;20.15;77.21;100598.41;6216031;22;45393;-70
2023/09/20 04:14:26;;;;;;;;;0.00;0.00;;;;;20.16;77.42;100597.41;6187909;22;45629;-70
2023/09/20 04:16:53;;;;;;;;;0.25;0.25;;;;;20.25;77.16;100604.00;6215810;22;45452;-70
2023/09/20 04:19:21;;;;;;;;;1.00;0.00;;;;;20.05;77.14;100578.41;6215690;22;45521;-70
2023/09/20 04:21:47;;;;;;;;;1.00;1.00;;;;;20.22;77.71;100605.09;6215912;22;45245;-70
2023/09/20 04:24:12;;;;;;;;;0.25;0.25;;;;;20.09;77.65;100577.19;6215554;22;45753;-70
2023/09/20 04:26:38;;;;;;;;;0.75;0.75;;;;;20.04;77.13;100576.66;6215890;22;46177;-70
2023/09/20 04:29:03;;;;;;;;;0.00;0.00;;;;;20.16;77.39;100601.00;6215612;22;45842;-70
2023/09/20 04:31:30;;;;;;;;;1.00;1.00;;;;;19.98;77.69;100568.00;6188509;22;45291;-70
2023/09/20 04:33:55;;;;;;;;;0.25;0.25;;;;;20.16;78.05;100600.09;6215173;22;45326;-70
2023/09/20 04:36:20;;;;;;;;;0.50;0.50;;;;;19.97;77.56;100568.97;6215442;22;46419;-70
2023/09/20 04:38:46;;;;;;;;;1.00;1.00;;;;;19.95;77.64;100560.09;6188602;22;45419;-70
2023/09/20 04:41:13;;;;;;;;;1.00;1.00;;;;;19.95;78.03;100554.69;6216918;22;45607;-70
2023/09/20 04:43:39;;;;;;;;;1.50;0.50;;;;;19.93;77.61;100559.38;6189232;22;45562;-70
2023/09/20 04:46:06;;;;;;;;;0.25;0.25;;;;;20.05;77.93;100575.69;6216480;22;46892;-70
2023/09/20 04:48:31;;;;;;;;;0.25;0.25;;;;;20.03;78.02;100564.97;6216333;22;45214;-70
2023/09/20 04:50:57;;;;;;;;;3.25;0.25;;;;;20.00;78.13;100562.47;6216752;22;45369;-70
2023/09/20 04:53:23;;;;;;;;;0.00;0.00;;;;;19.87;78.24;100546.28;6216465;22;45326;-70
2023/09/20 04:55:49;;;;;;;;;1.50;1.50;;;;;19.95;78.09;100551.97;6189739;22;45305;-70
2023/09/20 04:58:14;;;;;;;;;1.00;1.00;;;;;20.04;78.37;100569.38;6216698;22;45617;-70
2023/09/20 05:00:41;;;;;;;;;2.25;1.00;;;;;19.85;78.50;100534.69;6216338;22;45349;-70
2023/09/20 05:03:07;;;;;;;;;2.00;1.00;;;;;19.95;78.21;100556.53;6216292;22;45398;-70
2023/09/20 05:05:32;;;;;;;;;3.00;1.00;;;;;19.81;78.08;100530.47;6216637;22;45517;-70
2023/09/20 05:07:57;;;;;;;;;2.00;2.00;;;;;19.95;78.29;100556.53;6189019;22;45310;-70
2023/09/20 05:10:25;;;;;;;;;1.25;1.25;;;;;19.97;78.55;100563.56;6159826;23;45449;-70
2023/09/20 05:12:51;;;;;;;;;1.00;1.00;;;;;19.98;78.28;100565.31;6186469;23;45219;-70
2023/09/20 05:15:17;;;;;;;;;1.25;1.25;;;;;19.98;78.34;100564.44;6186005;23;45195;-70
2023/09/20 05:17:45;;;;;;;;;2.00;1.00;;;;;19.82;78.27;100539.47;6186669;23;45288;-70
2023/09/20 05:20:14;;;;;;;;;1.50;0.50;;;;;19.94;78.10;100557.50;6186349;23;45265;-70
2023/09/20 05:22:40;;;;;;;;;2.00;1.00;;;;;19.93;78.40;100562.06;6186402;23;45743;-70
2023/09/20 05:25:07;;;;;;;;;2.50;1.00;;;;;19.79;78.40;100541.41;6159125;23;47165;-70
2023/09/20 05:27:33;;;;;;;;;3.75;1.00;;;;;19.81;78.45;100549.41;6134600;23;45468;-70
2023/09/20 05:29:59;;;;;;;;;2.00;1.75;;;;;19.80;78.58;100553.97;6159362;23;45232;-70
2023/09/20 05:32:24;;;;;;;;;1.00;1.00;;;;;19.77;78.74;100556.06;6185998;23;45379;-70
2023/09/20 05:34:50;;;;;;;;;1.50;1.50;;;;;19.61;78.71;100540.03;6185913;23;46034;-70
2023/09/20 05:37:16;;;;;;;;;2.00;0.75;;;;;19.72;78.89;100550.94;6186257;23;45349;-70
2023/09/20 05:39:43;;;;;;;;;3.50;1.00;;;;;19.66;78.65;100543.25;6159592;23;45615;-70
2023/09/20 05:42:09;;;;;;;;;0.50;0.50;;;;;19.79;78.77;100570.34;6183682;23;46282;-70
2023/09/20 05:44:36;;;;;;;;;0.25;0.25;;;;;19.67;78.92;100546.84;6158767;23;48005;-70
2023/09/20 05:47:03;;;;;;;;;2.00;0.75;;;;;19.72;79.07;100552.78;6159296;23;45991;-70
2023/09/20 05:49:29;;;;;;;;;3.00;2.00;;;;;19.59;79.16;100529.31;6185826;23;45300;-70
2023/09/20 05:51:56;;;;;;;;;1.00;1.00;;;;;19.68;78.94;100545.84;6159328;23;45475;-70
2023/09/20 05:54:21;;;;;;;;;2.00;1.00;;;;;19.80;78.98;100563.97;6185757;23;45716;-70
2023/09/20 05:56:48;;;;;;;;;1.25;1.00;;;;;19.78;78.98;100558.66;6186068;23;45349;-70
2023/09/20 05:59:16;;;;;;;;;1.00;1.00;;;;;19.76;78.99;100552.50;6185805;23;45318;-70
2023/09/20 06:01:42;;;;;;;;;1.00;1.00;;;;;19.72;78.94;100539.25;6185673;23;45459;-70
2023/09/20 06:04:09;;;;;;;;;2.00;2.00;;;;;19.81;79.08;100549.41;6156112;23;47866;-70
2023/09/20 06:06:36;;;;;;;;;2.75;2.00;;;;;19.58;79.19;100510.50;6158601;23;45356;-70
2023/09/20 06:09:03;;;;;;;;;1.00;1.00;;;;;19.70;79.60;100531.25;6196819;22;45416;-70
2023/09/20 06:11:28;;;;;;;;;1.50;1.50;;;;;19.58;79.72;100522.19;6187848;22;45600;-70
2023/09/20 06:13:53;;;;;;;;;1.50;1.50;;;;;19.63;79.33;100525.41;6185886;22;46725;-70
2023/09/20 06:16:19;;;;;;;;;2.50;1.00;;;;;19.50;79.26;100502.94;6215179;22;45435;-66
2023/09/20 06:18:45;;;;;;;;;2.75;2.75;;;;;19.57;79.39;100516.88;6213009;22;45395;-66
2023/09/20 06:21:11;;;;;;;;;3.00;1.50;;;;;19.51;79.68;100511.91;6189038;22;45485;-66
2023/09/20 06:23:38;;;;;;;;;1.25;1.00;;;;;19.49;79.43;100503.03;6215256;22;45439;-65
2023/09/20 06:26:09;;;;;;;;;1.00;1.00;;;;;19.62;80.13;100536.34;6187320;22;45439;-65
2023/09/20 06:28:35;;;;;;;;;2.50;2.50;;;;;19.56;80.26;100517.84;6213539;22;45314;-66
2023/09/20 06:31:01;;;;;;;;;1.75;1.75;;;;;19.54;79.73;100509.84;6215013;22;45385;-65
2023/09/20 06:33:27;;;;;;;;;1.50;0.75;;;;;19.51;79.72;100506.50;6214032;22;46971;-66
2023/09/20 06:35:55;;;;;;;;;4.00;1.25;;;;;19.59;79.91;100518.47;6215330;22;45505;-66
2023/09/20 06:38:23;;;;;;;;;3.25;2.25;;;;;19.49;79.89;100503.03;6215689;22;45490;-66
2023/09/20 06:40:53;;;;;;;;;1.25;1.25;;;;;19.59;79.87;100517.63;6186999;22;45415;-66
2023/09/20 06:43:18;;;;;;;;;3.25;1.75;;;;;19.41;79.80;100493.66;6187726;22;48066;-66
2023/09/20 06:45:51;;;;;;;;;2.75;2.00;;;;;19.48;80.04;100517.53;6188881;22;45296;-66
2023/09/20 06:48:23;;;;;;;;;1.50;1.50;;;;;19.46;79.67;100517.66;6188951;22;45321;-66
2023/09/20 06:50:50;;;;;;;;;1.00;1.00;;;;;19.59;79.97;100540.13;6214671;22;45581;-65
2023/09/20 06:53:17;;;;;;;;;2.50;2.50;;;;;19.55;80.22;100521.56;6189213;22;46229;-65
2023/09/20 06:55:43;;;;;;;;;3.00;2.25;;;;;19.67;79.94;100546.84;6215493;22;45374;-66
2023/09/20 06:58:08;;;;;;;;;3.25;2.00;;;;;19.63;80.05;100541.66;6188972;22;45289;-66
2023/09/20 07:00:35;;;;;;;;;1.75;1.75;;;;;19.58;80.33;100535.72;6215594;22;45341;-65
2023/09/20 07:03:02;;;;;;;;;1.00;1.00;;;;;19.62;80.14;100539.91;6212978;22;47577;-67
2023/09/20 07:05:28;;;;;;;;;1.50;1.50;;;;;19.40;80.58;100501.88;6214903;22;45535;-69
2023/09/20 07:07:54;;;;;;;;;1.25;1.25;;;;;19.61;80.25;100532.78;6214097;22;45421;-70
2023/09/20 07:10:21;;;;;;;;;1.25;1.25;;;;;19.60;80.53;100532.91;6212863;22;45763;-65
2023/09/20 07:12:46;;;;;;;;;2.50;1.75;;;;;19.72;80.33;100541.97;6214186;22;45458;-72
2023/09/20 07:15:23;;;;;;;;;1.25;1.25;;;;;19.48;80.82;100504.91;6214448;22;45175;-66
2023/09/20 07:18:34;;;;;;;;;1.25;1.25;;;;;19.60;80.32;100525.63;6215502;22;45403;-67
2023/09/20 07:20:36;;;;;;;;;0.00;0.00;;;;;19.47;80.21;100505.88;6197276;22;45268;-67
2023/09/20 07:23:03;;;;;;;;;2.50;2.25;;;;;19.52;80.40;100517.22;6214572;22;45852;-71
2023/09/20 07:25:28;;;;;;;;;3.00;2.00;;;;;19.53;80.45;100518.97;6211641;22;45531;-66
2023/09/20 07:27:55;;;;;;;;;3.00;2.00;;;;;19.54;80.42;100509.84;6211706;22;45321;-66
2023/09/20 07:30:22;;;;;;;;;2.50;2.50;;;;;19.67;80.30;100525.19;6205353;22;45344;-69
2023/09/20 07:32:50;;;;;;;;;1.00;1.00;;;;;19.63;80.43;100517.28;6175450;22;46031;-71
2023/09/20 07:35:36;;;;;;;;;2.75;2.00;;;;;19.63;80.44;100511.88;6185768;22;45361;-71
2023/09/20 07:38:04;;;;;;;;;2.00;2.00;;;;;19.73;80.44;100530.13;6215431;22;45375;-65
2023/09/20 07:40:35;;;;;;;;;2.25;2.25;;;;;19.79;80.59;100540.56;6214678;22;45503;-69
2023/09/20 07:43:04;;;;;;;;;3.75;2.00;;;;;19.80;80.55;100550.41;6214098;22;46210;-70
2023/09/20 07:45:38;;;;;;;;;2.00;2.00;;;;;19.74;81.05;100531.88;6215488;22;45408;-66
2023/09/20 07:48:13;;;;;;;;;2.50;2.50;;;;;19.66;80.99;100510.78;6215042;22;45361;-67
2023/09/20 07:50:40;;;;;;;;;4.25;4.00;;;;;19.71;80.66;100514.03;6215135;22;45379;-70
2023/09/20 07:53:10;;;;;;;;;2.25;1.50;;;;;19.80;81.20;100528.75;6187832;22;47341;-71
2023/09/20 07:55:36;;;;;;;;;1.75;1.75;;;;;19.85;80.92;100533.84;6215434;22;45597;-65
2023/09/20 07:58:01;;;;;;;;;2.00;2.00;;;;;19.68;80.85;100497.13;6186235;22;45418;-69
2023/09/20 08:00:27;;;;;;;;;2.75;2.00;;;;;19.56;81.21;100475.41;6187113;22;45456;-67
2023/09/20 08:02:54;;;;;;;;;2.00;2.00;;;;;19.69;81.10;100493.44;6213951;22;46165;-66
2023/09/20 08:05:22;;;;;;;;;3.00;2.00;;;;;19.75;81.16;100498.44;6214267;22;45271;-66
2023/09/20 08:07:47;;;;;;;;;2.25;2.25;;;;;19.79;81.09;100495.38;6215261;22;45261;-66
2023/09/20 08:10:13;;;;;;;;;3.50;3.50;;;;;19.84;80.91;100503.16;6185730;22;45678;-67
2023/09/20 08:12:38;;;;;;;;;3.00;2.00;;;;;19.94;80.29;100515.03;6213974;22;45465;-67
2023/09/20 08:15:04;;;;;;;;;4.50;3.50;;;;;19.84;80.33;100499.59;6185352;22;45359;-67
2023/09/20 08:20:16;;;;;;;;;3.50;3.50;;;;;19.84;80.82;100483.34;6211118;22;45198;-68
2023/09/20 09:01:12;;;;;;;;;2.00;1.75;;;;;20.20;78.45;100467.94;6213249;22;45569;-72
2023/09/20 09:03:41;;;;;;;;;2.00;1.00;;;;;20.20;78.68;100466.13;6212798;22;45501;-72
2023/09/20 09:06:08;;;;;;;;;2.75;2.00;;;;;20.60;79.36;100533.53;6214263;22;45343;-72
2023/09/20 09:08:34;;;;;;;;;1.00;1.00;;;;;20.40;78.15;100493.50;6185546;22;45477;-72
2023/09/20 09:11:00;;;;;;;;;1.25;1.25;;;;;20.59;78.45;100515.50;6184316;22;45314;-72
2023/09/20 09:13:25;;;;;;;;;4.00;2.00;;;;;20.38;77.65;100463.84;6211783;22;45517;-72
2023/09/20 09:15:50;;;;;;;;;2.00;2.00;;;;;20.49;78.46;100477.41;6185442;22;45868;-72
2023/09/20 09:18:18;;;;;;;;;2.75;1.75;;;;;20.76;77.93;100505.22;6211870;22;45316;-73
2023/09/20 09:20:44;;;;;;;;;2.00;2.00;;;;;20.77;77.82;100490.69;6210392;22;45502;-68
2023/09/20 09:23:10;;;;;;;;;2.75;2.00;;;;;20.63;77.40;100459.22;6210993;22;45403;-68
2023/09/20 09:25:35;;;;;;;;;1.00;1.00;;;;;20.82;76.84;100474.91;6212425;22;45890;-68
2023/09/20 09:28:01;;;;;;;;;3.00;1.25;;;;;20.81;77.14;100462.31;6214344;22;45321;-65
2023/09/20 09:30:30;;;;;;;;;2.50;1.50;;;;;20.87;76.21;100464.53;6213986;22;45401;-69
2023/09/20 09:32:57;;;;;;;;;1.50;1.50;;;;;20.87;75.89;100459.13;6213923;22;45344;-70
2023/09/20 09:35:23;;;;;;;;;1.50;1.50;;;;;20.93;75.27;100458.59;6187095;22;45497;-68
2023/09/20 09:37:50;;;;;;;;;1.00;1.00;;;;;21.05;74.82;100465.78;6214026;22;45648;-69
2023/09/20 09:40:15;;;;;;;;;2.00;2.00;;;;;21.00;74.66;100458.97;6214176;22;45563;-69
2023/09/20 09:42:44;;;;;;;;;1.00;1.00;;;;;20.96;74.46;100447.50;6213930;22;45279;-69
2023/09/20 09:45:10;;;;;;;;;2.00;1.00;;;;;21.14;74.19;100460.59;6181367;22;47950;-69
2023/09/20 09:47:37;;;;;;;;;2.00;2.00;;;;;21.11;73.75;100445.41;6212171;22;45438;-69
2023/09/20 09:50:06;;;;;;;;;2.00;2.00;;;;;21.13;73.55;100440.72;6186654;22;45432;-69
2023/09/20 09:52:34;;;;;;;;;2.00;2.00;;;;;21.17;73.53;100439.50;6185993;22;45484;-69
2023/09/20 09:55:00;;;;;;;;;3.00;2.00;;;;;21.24;73.18;100432.56;6212736;22;46098;-68
2023/09/20 09:57:25;;;;;;;;;1.00;1.00;;;;;21.19;72.57;100423.06;6180498;22;49628;-68
2023/09/20 09:59:52;;;;;;;;;1.00;1.00;;;;;21.29;71.96;100435.75;6186675;22;45728;-68
2023/09/20 10:02:22;;;;;;;;;1.00;1.00;;;;;21.32;71.37;100434.66;6213578;22;45384;-68
2023/09/20 10:04:58;;;;;;;;;3.50;1.00;;;;;21.31;71.18;100421.19;6213267;22;45732;-69
2023/09/20 10:07:30;;;;;;;;;2.00;2.00;;;;;21.36;70.70;100419.81;6213545;22;45365;-68
2023/09/20 10:10:02;;;;;;;;;1.00;0.00;;;;;21.37;70.39;100415.28;6185813;22;45529;-68
2023/09/20 10:12:31;;;;;;;;;2.50;2.50;;;;;21.36;70.00;100400.81;6207727;22;45498;-68
2023/09/20 10:14:59;;;;;;;;;3.00;3.00;;;;;21.41;68.98;100408.59;6207691;22;46340;-68
2023/09/20 10:17:30;;;;;;;;;0.00;0.00;;;;;21.50;67.95;100412.41;6213461;22;45471;-69
2023/09/20 10:19:56;;;;;;;;;0.25;0.25;;;;;21.53;68.13;100412.16;6214930;22;45499;-68
2023/09/20 10:22:25;;;;;;;;;0.00;0.00;;;;;21.52;67.54;100405.00;6213658;22;45555;-68
2023/09/20 10:25:01;;;;;;;;;2.50;1.00;;;;;21.61;65.57;100415.09;6214089;22;45515;-69
2023/09/20 10:27:30;;;;;;;;;3.00;0.75;;;;;21.66;65.37;100404.69;6212178;22;45681;-68
2023/09/20 10:30:02;;;;;;;;;2.50;1.50;;;;;21.69;65.45;100384.59;6211130;22;45689;-69
2023/09/20 10:32:31;;;;;;;;;1.50;1.00;;;;;21.79;64.25;100399.09;6212743;22;45479;-69
2023/09/20 10:35:31;;;;;;;;;0.00;0.00;;;;;21.83;63.68;100387.84;6212904;22;46535;-68
2023/09/20 10:38:07;;;;;;;;;1.25;1.00;;;;;21.77;63.48;100368.50;6213318;22;45241;-69
2023/09/20 10:40:45;;;;;;;;;1.00;1.00;;;;;21.91;63.72;100406.19;6187035;22;45412;-68
2023/09/20 10:43:41;;;;;;;;;0.25;0.25;;;;;21.89;63.50;100393.75;6186558;22;45242;-68
2023/09/20 10:46:12;;;;;;;;;1.00;1.00;;;;;21.88;63.20;100384.72;6185913;22;47061;-69
2023/09/20 10:48:49;;;;;;;;;0.00;0.00;;;;;22.02;62.83;100387.13;6213906;22;45322;-68
2023/09/20 10:51:48;;;;;;;;;1.00;0.00;;;;;22.05;63.78;100368.81;6214267;22;45683;-69
2023/09/20 10:54:17;;;;;;;;;1.00;0.00;;;;;22.17;62.24;100381.34;6186254;22;45447;-69
2023/09/20 10:56:54;;;;;;;;;1.00;1.00;;;;;22.21;62.12;100380.94;6213479;22;45823;-69
2023/09/20 10:59:21;;;;;;;;;1.00;1.00;;;;;22.25;61.75;100384.25;6213329;22;45512;-69
2023/09/20 11:01:56;;;;;;;;;1.00;1.00;;;;;22.23;61.70;100366.34;6184847;22;45360;-69
2023/09/20 11:04:22;;;;;;;;;1.00;1.00;;;;;22.27;61.83;100365.97;6212631;22;45422;-69
2023/09/20 11:06:48;;;;;;;;;1.00;1.00;;;;;22.34;61.37;100369.03;6212762;22;45575;-69
2023/09/20 11:09:15;;;;;;;;;1.00;1.00;;;;;22.35;61.29;100368.91;6213188;22;45553;-69
2023/09/20 11:11:42;;;;;;;;;1.00;1.00;;;;;22.34;61.38;100352.72;6212812;22;45635;-69
2023/09/20 11:14:08;;;;;;;;;1.75;1.75;;;;;22.49;62.41;100375.84;6213237;22;45676;-69
2023/09/20 11:16:34;;;;;;;;;3.75;1.50;;;;;22.54;62.75;100362.69;6213075;22;45822;-68
2023/09/20 11:19:00;;;;;;;;;1.50;1.50;;;;;22.60;62.62;100372.16;6213663;22;45415;-68
2023/09/20 11:21:26;;;;;;;;;2.00;2.00;;;;;22.61;61.23;100354.00;6214076;22;45556;-71
2023/09/20 11:23:51;;;;;;;;;1.25;1.25;;;;;22.53;60.89;100339.19;6186354;22;45538;-71
2023/09/20 11:26:27;;;;;;;;;3.00;1.00;;;;;22.73;61.31;100361.03;6184498;22;47469;-71
2023/09/20 11:28:52;;;;;;;;;2.00;2.00;;;;;22.77;60.33;100357.06;6213757;22;45538;-71
2023/09/20 11:31:30;;;;;;;;;2.25;2.25;;;;;22.71;60.78;100333.13;6213201;22;45280;-72
2023/09/20 11:34:03;;;;;;;;;0.25;0.25;;;;;22.65;60.56;100309.19;6183329;22;45422;-72
2023/09/20 11:36:30;;;;;;;;;1.75;1.75;;;;;22.80;60.34;100328.69;6182910;22;47167;-72
2023/09/20 11:38:55;;;;;;;;;1.00;1.00;;;;;22.76;60.36;100322.69;6213542;22;45325;-73
2023/09/20 11:41:24;;;;;;;;;1.00;1.00;;;;;22.82;60.08;100329.41;6214398;22;45453;-74
2023/09/20 11:43:56;;;;;;;;;2.00;2.00;;;;;22.93;60.28;100327.44;6186641;22;45510;-74
2023/09/20 11:46:22;;;;;;;;;5.00;2.00;;;;;22.99;60.43;100339.63;6214005;22;45581;-73
2023/09/20 11:48:49;;;;;;;;;1.00;1.00;;;;;23.01;59.37;100323.19;6213298;22;45501;-73
2023/09/20 11:51:15;;;;;;;;;1.00;1.00;;;;;23.01;59.79;100315.00;6186834;22;45305;-73
2023/09/20 11:53:44;;;;;;;;;1.50;1.50;;;;;23.06;59.67;100320.88;6213521;22;45459;-74
2023/09/20 11:56:10;;;;;;;;;1.00;1.00;;;;;23.10;59.66;100316.91;6186557;22;46956;-73
2023/09/20 11:58:37;;;;;;;;;1.00;1.00;;;;;23.11;59.97;100307.75;6186722;22;45601;-73
2023/09/20 12:01:06;;;;;;;;;3.25;2.00;;;;;23.10;59.42;100306.91;6213455;22;45367;-73
2023/09/20 12:03:32;;;;;;;;;4.00;2.00;;;;;23.22;59.14;100309.47;6185771;22;45454;-74
2023/09/20 12:05:58;;;;;;;;;1.75;1.75;;;;;23.21;59.08;100300.44;6186767;22;47276;-73
2023/09/20 12:08:31;;;;;;;;;1.50;1.50;;;;;23.18;58.81;100295.28;6212802;22;45636;-73
2023/09/20 12:10:56;;;;;;;;;3.00;2.00;;;;;23.33;59.35;100306.59;6212581;22;45301;-73